| time (UTC) | temp C | wind direction | speed KPH | gust KPH | rain 1hr cm | rain 24hr cm | rain mn cm | humidity % | barometer mb |
| 20260503033041 | 12 | 327 | 32.2 | 48.3 | 0.00 | 0.00 | 0.00 | 63 | 1016.1 |
| 20260503031542 | 16 | 348 | 12.9 | 29.0 | 0.00 | 0.00 | 0.00 | 42 | 1015.4 |
| 20260503030049 | 16 | 0 | 0.0 | 0.0 | 0.00 | 0.00 | 0.00 | 39 | 1014.9 |
| 20260503024535 | 16 | 0 | 0.0 | 1.6 | 0.00 | 0.00 | 0.00 | 38 | 1014.6 |
| 20260503023041 | 16 | 0 | 0.0 | 3.2 | 0.00 | 0.00 | 0.00 | 39 | 1014.6 |
| 20260503021538 | 17 | 350 | 1.6 | 3.2 | 0.00 | 0.00 | 0.00 | 38 | 1014.6 |
| 20260503020040 | 17 | 195 | 0.0 | 3.2 | 0.00 | 0.00 | 0.00 | 38 | 1014.5 |
| 20260503014552 | 17 | 111 | 1.6 | 3.2 | 0.00 | 0.00 | 0.00 | 38 | 1014.5 |
| 20260503013033 | 17 | 163 | 3.2 | 8.0 | 0.00 | 0.00 | 0.00 | 36 | 1014.7 |
| 20260503011538 | 18 | 121 | 1.6 | 4.8 | 0.00 | 0.00 | 0.00 | 35 | 1014.6 |
| 20260503010039 | 18 | 117 | 3.2 | 9.7 | 0.00 | 0.00 | 0.00 | 35 | 1014.8 |
| 20260503004540 | 18 | 179 | 4.8 | 9.7 | 0.00 | 0.00 | 0.00 | 35 | 1014.9 |
| 20260503003045 | 18 | 183 | 6.4 | 11.3 | 0.00 | 0.00 | 0.00 | 35 | 1015.1 |
| 20260503001534 | 18 | 157 | 8.0 | 14.5 | 0.00 | 0.00 | 0.00 | 36 | 1015.3 |
| 20260503000042 | 18 | 154 | 9.7 | 14.5 | 0.00 | 0.00 | 0.00 | 35 | 1015.4 |
| 20260502234539 | 18 | 209 | 3.2 | 11.3 | 0.00 | 0.00 | 0.00 | 34 | 1015.4 |
| 20260502233038 | 18 | 199 | 4.8 | 19.3 | 0.00 | 0.00 | 0.00 | 34 | 1015.5 |
| 20260502231538 | 19 | 240 | 4.8 | 16.1 | 0.00 | 0.00 | 0.00 | 32 | 1015.9 |
| 20260502230038 | 19 | 53 | 4.8 | 14.5 | 0.00 | 0.00 | 0.00 | 34 | 1016.2 |
| 20260502224534 | 18 | 306 | 6.4 | 16.1 | 0.00 | 0.00 | 0.00 | 35 | 1016.3 |
| 20260502223041 | 18 | 57 | 4.8 | 12.9 | 0.00 | 0.00 | 0.00 | 35 | 1016.4 |
| 20260502221532 | 19 | 311 | 4.8 | 12.9 | 0.00 | 0.00 | 0.00 | 36 | 1016.7 |
| 20260502220041 | 19 | 204 | 3.2 | 11.3 | 0.00 | 0.00 | 0.00 | 36 | 1016.8 |
| 20260502214536 | 18 | 277 | 6.4 | 14.5 | 0.00 | 0.00 | 0.00 | 37 | 1017.1 |
| 20260502213045 | 18 | 255 | 4.8 | 14.5 | 0.00 | 0.00 | 0.00 | 39 | 1017.3 |
| 20260502211537 | 17 | 337 | 4.8 | 11.3 | 0.00 | 0.00 | 0.00 | 38 | 1017.5 |
| 20260502210035 | 18 | 205 | 4.8 | 9.7 | 0.00 | 0.00 | 0.00 | 37 | 1017.6 |
| 20260502204533 | 18 | 0 | 3.2 | 14.5 | 0.00 | 0.00 | 0.00 | 38 | 1017.7 |
| 20260502203032 | 17 | 43 | 8.0 | 19.3 | 0.00 | 0.00 | 0.00 | 39 | 1017.8 |
| 20260502201534 | 17 | 32 | 12.9 | 20.9 | 0.00 | 0.00 | 0.00 | 41 | 1018.0 |
| 20260502200038 | 17 | 15 | 14.5 | 20.9 | 0.00 | 0.00 | 0.00 | 41 | 1018.2 |
| 20260502194538 | 17 | 198 | 1.6 | 6.4 | 0.00 | 0.00 | 0.00 | 39 | 1018.4 |
| 20260502193039 | 17 | 0 | 1.6 | 14.5 | 0.00 | 0.00 | 0.00 | 39 | 1018.5 |
| 20260502191540 | 17 | 22 | 6.4 | 14.5 | 0.00 | 0.00 | 0.00 | 40 | 1018.6 |
| 20260502190039 | 17 | 96 | 6.4 | 11.3 | 0.00 | 0.00 | 0.00 | 40 | 1018.7 |
| 20260502184538 | 17 | 274 | 4.8 | 14.5 | 0.00 | 0.00 | 0.00 | 39 | 1018.7 |
| 20260502183034 | 17 | 26 | 0.0 | 12.9 | 0.00 | 0.00 | 0.00 | 40 | 1018.9 |
| 20260502181543 | 17 | 40 | 3.2 | 8.0 | 0.00 | 0.00 | 0.00 | 41 | 1019.1 |
| 20260502163039 | 16 | 313 | 6.4 | 19.3 | 0.00 | 0.00 | 0.00 | 42 | 1019.4 |
| 20260502161541 | 16 | 333 | 4.8 | 16.1 | 0.00 | 0.00 | 0.00 | 42 | 1019.4 |
| 20260502151542 | 13 | 261 | 9.7 | 14.5 | 0.00 | 0.00 | 0.00 | 46 | 1019.5 |
| 20260502123032 | 9 | 25 | 22.5 | 27.4 | 0.00 | 0.00 | 0.00 | 55 | 1017.9 |
| 20260502121540 | 9 | 21 | 19.3 | 24.1 | 0.00 | 0.00 | 0.00 | 54 | 1017.7 |
| 20260502114533 | 9 | 5 | 16.1 | 24.1 | 0.00 | 0.00 | 0.00 | 53 | 1017.5 |
| 20260502113032 | 10 | 26 | 14.5 | 24.1 | 0.00 | 0.00 | 0.00 | 52 | 1017.2 |
| 20260502111539 | 7 | 19 | 8.0 | 12.9 | 0.00 | 0.00 | 0.00 | 53 | 1017.2 |
| 20260502110042 | 7 | 331 | 3.2 | 6.4 | 0.00 | 0.00 | 0.00 | 52 | 1016.9 |
| 20260502104540 | 8 | 331 | 4.8 | 9.7 | 0.00 | 0.00 | 0.00 | 51 | 1016.7 |
| 20260502103041 | 8 | 304 | 6.4 | 12.9 | 0.00 | 0.00 | 0.00 | 50 | 1016.6 |
| 20260502101537 | 7 | 312 | 6.4 | 12.9 | 0.00 | 0.00 | 0.00 | 49 | 1016.6 |
| 20260502091534 | 8 | 297 | 4.8 | 12.9 | 0.00 | 0.00 | 0.00 | 45 | 1015.4 |
| 20260502070039 | 10 | 311 | 8.0 | 14.5 | 0.00 | 0.00 | 0.00 | 39 | 1014.8 |
| 20260502064550 | 10 | 329 | 8.0 | 16.1 | 0.00 | 0.00 | 0.00 | 39 | 1014.6 |
| 20260502063037 | 9 | 313 | 9.7 | 19.3 | 0.00 | 0.00 | 0.00 | 39 | 1014.6 |
| 20260502061533 | 11 | 327 | 8.0 | 17.7 | 0.00 | 0.00 | 0.00 | 35 | 1014.6 |
| 20260502060040 | 12 | 308 | 11.3 | 19.3 | 0.00 | 0.00 | 0.00 | 34 | 1014.4 |
| 20260502054543 | 13 | 328 | 16.1 | 27.4 | 0.00 | 0.00 | 0.00 | 33 | 1014.2 |
| 20260502053039 | 12 | 312 | 14.5 | 20.9 | 0.00 | 0.00 | 0.00 | 35 | 1014.1 |
| 20260502051538 | 12 | 307 | 11.3 | 19.3 | 0.00 | 0.00 | 0.00 | 33 | 1014.2 |
| 20260502050033 | 12 | 331 | 11.3 | 17.7 | 0.00 | 0.00 | 0.00 | 33 | 1014.2 |
| 20260502044541 | 12 | 347 | 9.7 | 17.7 | 0.00 | 0.00 | 0.00 | 31 | 1014.2 |
| 20260502043038 | 12 | 321 | 6.4 | 12.9 | 0.00 | 0.00 | 0.00 | 32 | 1014.1 |
| 20260502041539 | 12 | 313 | 4.8 | 14.5 | 0.00 | 0.00 | 0.00 | 29 | 1014.2 |
| 20260502040048 | 13 | 338 | 6.4 | 12.9 | 0.00 | 0.00 | 0.00 | 28 | 1014.1 |
| 20260502034533 | 14 | 317 | 6.4 | 14.5 | 0.00 | 0.00 | 0.00 | 25 | 1014.0 |